createdAt,value
2018-10-18T00:01:53.166Z,11.45
2018-10-18T00:04:22.239Z,15.65
2018-10-18T00:06:51.655Z,19.32
2018-10-18T00:09:20.725Z,15.80
2018-10-18T00:11:49.964Z,15.10
2018-10-18T00:14:19.142Z,9.90
2018-10-18T00:16:48.120Z,18.20
2018-10-18T00:19:17.324Z,14.50
2018-10-18T00:21:46.655Z,14.28
2018-10-18T00:24:15.944Z,15.88
2018-10-18T00:26:44.908Z,15.65
2018-10-18T00:29:14.287Z,15.58
2018-10-18T00:31:43.409Z,15.38
2018-10-18T00:34:12.395Z,14.45
2018-10-18T00:36:41.738Z,16.40
2018-10-18T00:39:12.959Z,24.80
2018-10-18T00:41:42.340Z,18.62
2018-10-18T00:44:11.915Z,17.90
2018-10-18T00:46:41.171Z,20.70
2018-10-18T00:49:11.719Z,23.52
2018-10-18T00:51:40.978Z,21.05
2018-10-18T00:54:10.047Z,21.73
2018-10-18T00:56:39.165Z,29.18
2018-10-18T00:59:08.773Z,19.32
2018-10-18T01:01:37.799Z,21.60
2018-10-18T01:04:06.684Z,16.15
2018-10-18T01:06:35.995Z,15.38
2018-10-18T01:09:06.746Z,19.62
2018-10-18T01:11:35.895Z,16.55
2018-10-18T01:14:05.269Z,22.75
2018-10-18T01:16:34.495Z,21.10
2018-10-18T01:19:04.211Z,16.00
2018-10-18T01:21:33.601Z,16.27
2018-10-18T01:24:02.876Z,23.87
2018-10-18T01:26:32.131Z,18.23
2018-10-18T01:29:01.946Z,21.87
2018-10-18T01:31:31.250Z,19.42
2018-10-18T01:34:00.259Z,18.35
2018-10-18T01:36:29.566Z,13.25
2018-10-18T01:38:58.595Z,14.75
2018-10-18T01:41:27.635Z,15.95
2018-10-18T01:43:56.807Z,22.25
2018-10-18T01:46:25.902Z,20.92
2018-10-18T01:48:55.233Z,22.27
2018-10-18T01:51:24.571Z,27.07
2018-10-18T01:53:53.874Z,26.35
2018-10-18T01:56:22.831Z,20.32
2018-10-18T01:58:52.036Z,25.15
2018-10-18T02:01:21.162Z,16.75
2018-10-18T02:03:50.270Z,24.75
2018-10-18T02:06:19.579Z,14.35
2018-10-18T02:08:48.823Z,17.25
2018-10-18T02:11:17.856Z,16.80
2018-10-18T02:13:47.137Z,18.60
2018-10-18T02:16:16.268Z,18.65
2018-10-18T02:18:45.515Z,21.02
2018-10-18T02:21:21.703Z,21.12
2018-10-18T02:23:50.810Z,22.20
2018-10-18T02:26:20.082Z,23.32
2018-10-18T02:28:49.503Z,17.60
2018-10-18T02:31:18.591Z,19.45
2018-10-18T02:33:47.795Z,21.50
2018-10-18T02:36:17.041Z,21.93
2018-10-18T02:38:45.991Z,19.82
2018-10-18T02:41:15.122Z,18.92
2018-10-18T02:43:44.559Z,22.55
2018-10-18T02:46:13.567Z,15.55
2018-10-18T02:48:42.630Z,22.37
2018-10-18T02:51:11.987Z,22.42
2018-10-18T02:53:41.274Z,20.62
2018-10-18T02:56:10.346Z,16.23
2018-10-18T02:58:39.554Z,27.37
2018-10-18T03:01:08.749Z,20.10
2018-10-18T03:03:37.674Z,24.52
2018-10-18T03:06:07.178Z,21.15
2018-10-18T03:08:36.371Z,23.77
2018-10-18T03:11:05.983Z,23.30
2018-10-18T03:13:35.402Z,21.65
2018-10-18T03:16:04.594Z,23.40
2018-10-18T03:18:33.896Z,27.70
2018-10-18T03:21:03.361Z,24.70
2018-10-18T03:23:32.612Z,21.95
2018-10-18T03:26:01.356Z,19.37
2018-10-18T03:28:30.694Z,20.25
2018-10-18T03:30:59.950Z,23.32
2018-10-18T03:33:28.977Z,27.98
2018-10-18T03:35:58.449Z,19.92
2018-10-18T03:38:27.685Z,21.00
2018-10-18T03:40:56.800Z,20.12
2018-10-18T03:43:26.384Z,23.05
2018-10-18T03:45:55.170Z,19.77
2018-10-18T03:48:24.250Z,21.77
2018-10-18T03:50:53.699Z,23.57
2018-10-18T03:53:22.811Z,24.25
2018-10-18T03:55:51.983Z,24.95
2018-10-18T03:58:21.158Z,23.50
2018-10-18T04:00:50.375Z,40.20
2018-10-18T04:03:19.543Z,28.60
2018-10-18T04:05:48.883Z,29.30
2018-10-18T04:08:17.943Z,26.17
2018-10-18T04:10:46.952Z,26.85
2018-10-18T04:13:15.922Z,28.02
2018-10-18T04:15:44.943Z,35.83
2018-10-18T04:18:14.029Z,22.48
2018-10-18T04:20:43.227Z,27.48
2018-10-18T04:23:12.298Z,23.42
2018-10-18T04:25:41.520Z,22.73
2018-10-18T04:28:11.086Z,30.10
2018-10-18T04:30:40.159Z,30.65
2018-10-18T04:33:09.278Z,31.60
2018-10-18T04:35:38.488Z,29.30
2018-10-18T04:38:07.999Z,30.92
2018-10-18T04:40:37.167Z,26.82
2018-10-18T04:43:06.885Z,28.17
2018-10-18T04:45:35.931Z,29.98
2018-10-18T04:48:05.413Z,30.90
2018-10-18T04:50:34.907Z,36.23
2018-10-18T04:53:04.319Z,33.83
2018-10-18T04:55:33.642Z,27.45
2018-10-18T04:58:03.639Z,30.00
2018-10-18T05:00:32.658Z,22.95
2018-10-18T05:03:01.955Z,29.40
2018-10-18T05:06:04.595Z,28.98
2018-10-18T05:08:33.716Z,38.28
2018-10-18T05:11:02.922Z,34.05
2018-10-18T05:13:32.525Z,32.98
2018-10-18T05:16:01.640Z,39.48
2018-10-18T05:18:30.747Z,36.45
2018-10-18T05:21:01.275Z,42.23
2018-10-18T05:23:30.468Z,29.07
2018-10-18T05:25:59.630Z,40.65
2018-10-18T05:28:28.891Z,39.35
2018-10-18T05:30:58.223Z,37.98
2018-10-18T05:33:27.332Z,27.65
2018-10-18T05:35:57.090Z,38.08
2018-10-18T05:38:26.275Z,42.13
2018-10-18T05:40:55.314Z,39.23
2018-10-18T05:43:25.516Z,36.10
2018-10-18T05:45:55.706Z,45.75
2018-10-18T05:48:25.135Z,50.33
2018-10-18T05:50:54.388Z,71.17
2018-10-18T05:53:24.445Z,51.15
2018-10-18T05:55:53.607Z,54.88
2018-10-18T05:58:22.955Z,62.25
2018-10-18T06:00:52.046Z,63.28
2018-10-18T06:03:21.307Z,59.05
2018-10-18T06:05:50.602Z,55.10
2018-10-18T06:08:19.747Z,62.90
2018-10-18T06:11:00.267Z,45.98
2018-10-18T06:13:29.469Z,39.58
2018-10-18T06:15:58.771Z,40.30
2018-10-18T06:18:28.180Z,22.10
2018-10-18T06:20:57.307Z,23.38
2018-10-18T06:23:26.392Z,28.07
2018-10-18T06:25:55.308Z,25.55
2018-10-18T06:28:24.403Z,35.13
2018-10-18T06:30:53.477Z,32.40
2018-10-18T06:33:22.867Z,27.60
2018-10-18T06:35:52.088Z,44.58
2018-10-18T06:38:21.323Z,34.40
2018-10-18T06:40:50.807Z,33.28
2018-10-18T06:43:19.902Z,31.97
2018-10-18T06:45:49.063Z,42.30
2018-10-18T06:48:18.733Z,36.85
2018-10-18T06:50:48.040Z,37.03
2018-10-18T06:53:17.067Z,35.88
2018-10-18T06:55:46.596Z,44.23
2018-10-18T06:58:15.763Z,38.40
2018-10-18T07:00:44.964Z,28.67
2018-10-18T07:03:14.319Z,34.80
2018-10-18T07:05:43.375Z,36.08
2018-10-18T07:08:12.472Z,40.67
2018-10-18T07:10:41.860Z,32.35
2018-10-18T07:13:10.773Z,27.85
2018-10-18T07:15:40.075Z,34.25
2018-10-18T07:18:09.439Z,35.03
2018-10-18T07:20:38.765Z,25.70
2018-10-18T07:23:08.143Z,25.02
2018-10-18T07:25:37.431Z,30.72
2018-10-18T07:28:06.779Z,35.63
2018-10-18T07:30:35.980Z,33.40
2018-10-18T07:33:05.145Z,37.08
2018-10-18T07:35:34.260Z,33.10
2018-10-18T07:38:03.468Z,17.52
2018-10-18T07:40:32.568Z,21.70
2018-10-18T07:43:01.683Z,21.35
2018-10-18T07:45:31.038Z,34.53
2018-10-18T07:48:00.576Z,21.45
2018-10-18T07:50:29.743Z,15.65
2018-10-18T07:52:58.876Z,16.35
2018-10-18T07:55:27.912Z,15.40
2018-10-18T07:57:57.067Z,10.18
2018-10-18T08:00:26.081Z,15.40
2018-10-18T08:02:55.678Z,26.27
2018-10-18T08:05:24.980Z,17.95
2018-10-18T08:07:53.964Z,18.98
2018-10-18T08:10:23.591Z,15.18
2018-10-18T08:12:52.694Z,22.15
2018-10-18T08:15:21.825Z,19.50
2018-10-18T08:17:51.195Z,46.65
2018-10-18T08:20:20.303Z,15.65
2018-10-18T08:22:49.567Z,15.30
2018-10-18T08:25:19.063Z,18.55
2018-10-18T08:27:48.066Z,17.17
2018-10-18T08:30:17.147Z,20.60
2018-10-18T08:32:46.903Z,15.53
2018-10-18T08:35:16.074Z,12.05
2018-10-18T08:37:45.755Z,8.43
2018-10-18T08:40:14.862Z,17.27
2018-10-18T08:42:43.889Z,10.30
2018-10-18T08:45:13.010Z,13.85
2018-10-18T08:47:42.277Z,12.47
2018-10-18T08:50:12.355Z,17.77
2018-10-18T08:52:41.493Z,14.87
2018-10-18T08:55:13.144Z,13.78
2018-10-18T08:57:42.848Z,18.00
2018-10-18T09:00:12.785Z,14.55
2018-10-18T09:02:43.518Z,16.82
2018-10-18T09:05:12.767Z,23.38
2018-10-18T09:07:41.911Z,12.88
2018-10-18T09:10:11.254Z,10.78
2018-10-18T09:12:40.419Z,11.50
2018-10-18T09:15:10.385Z,15.28
2018-10-18T09:17:40.716Z,14.60
2018-10-18T09:20:09.852Z,13.98
2018-10-18T09:22:38.938Z,17.45
2018-10-18T09:25:09.722Z,22.87
2018-10-18T09:27:39.019Z,10.82
2018-10-18T09:30:09.460Z,15.48
2018-10-18T09:32:39.038Z,17.67
2018-10-18T09:35:08.319Z,10.93
2018-10-18T09:37:37.503Z,15.93
2018-10-18T09:40:07.858Z,23.57
2018-10-18T09:42:37.260Z,15.83
2018-10-18T09:45:08.026Z,18.12
2018-10-18T09:47:37.714Z,12.05
2018-10-18T09:50:06.995Z,13.22
2018-10-18T09:52:36.198Z,13.53
2018-10-18T09:55:05.951Z,17.15
2018-10-18T09:57:34.899Z,14.53
2018-10-18T10:00:04.312Z,9.65
2018-10-18T10:03:40.386Z,12.40
2018-10-18T10:06:09.463Z,13.50
2018-10-18T10:08:38.547Z,13.03
2018-10-18T10:11:07.923Z,14.83
2018-10-18T10:13:37.079Z,21.57
2018-10-18T10:16:06.266Z,17.27
2018-10-18T10:18:35.756Z,21.00
2018-10-18T10:21:04.874Z,15.85
2018-10-18T10:23:33.962Z,21.95
2018-10-18T10:26:03.503Z,13.80
2018-10-18T10:28:32.582Z,17.50
2018-10-18T10:31:01.698Z,16.48
2018-10-18T10:33:31.165Z,14.35
2018-10-18T10:36:00.256Z,17.42
2018-10-18T10:38:29.351Z,25.12
2018-10-18T10:40:58.691Z,15.50
2018-10-18T10:43:28.017Z,26.68
2018-10-18T10:45:57.137Z,12.07
2018-10-18T10:48:26.581Z,28.30
2018-10-18T10:50:55.726Z,22.10
2018-10-18T10:53:24.810Z,27.80
2018-10-18T10:55:54.259Z,36.60
2018-10-18T10:58:23.347Z,27.55
2018-10-18T11:01:19.513Z,27.95
2018-10-18T11:03:49.395Z,24.65
2018-10-18T11:06:18.436Z,23.35
2018-10-18T11:08:48.102Z,31.00
2018-10-18T11:11:17.740Z,22.07
2018-10-18T11:13:47.027Z,22.60
2018-10-18T11:16:16.358Z,29.12
2018-10-18T11:18:45.431Z,32.00
2018-10-18T11:21:16.096Z,25.40
2018-10-18T11:23:45.535Z,33.13
2018-10-18T11:26:14.544Z,26.30
2018-10-18T11:28:43.659Z,26.52
2018-10-18T11:31:13.183Z,26.70
2018-10-18T11:33:42.376Z,33.53
2018-10-18T11:36:11.680Z,24.75
2018-10-18T11:38:41.064Z,22.00
2018-10-18T11:41:10.149Z,26.25
2018-10-18T11:43:39.182Z,24.70
2018-10-18T11:46:08.374Z,25.95
2018-10-18T11:48:37.435Z,26.07
2018-10-18T11:51:06.666Z,22.02
2018-10-18T11:53:36.002Z,20.43
2018-10-18T11:56:05.353Z,25.32
2018-10-18T11:58:34.544Z,22.48
2018-10-18T12:01:03.920Z,31.02
2018-10-18T12:03:33.172Z,9.63
2018-10-18T12:06:02.211Z,22.58
2018-10-18T12:08:31.791Z,22.22
2018-10-18T12:11:00.982Z,23.30
2018-10-18T12:13:29.858Z,26.55
2018-10-18T12:15:59.298Z,29.02
2018-10-18T12:18:28.475Z,22.25
2018-10-18T12:20:57.535Z,20.82
2018-10-18T12:23:26.600Z,24.37
2018-10-18T12:25:55.785Z,23.02
2018-10-18T12:28:25.059Z,21.17
2018-10-18T12:30:54.385Z,23.65
2018-10-18T12:33:23.464Z,21.40
2018-10-18T12:35:52.531Z,28.40
2018-10-18T12:38:22.087Z,24.55
2018-10-18T12:40:51.409Z,18.48
2018-10-18T12:43:20.471Z,17.35
2018-10-18T12:45:49.803Z,26.90
2018-10-18T12:48:18.712Z,25.50
2018-10-18T12:50:47.753Z,20.08
2018-10-18T12:53:17.203Z,24.80
2018-10-18T12:55:46.252Z,18.15
2018-10-18T12:58:15.355Z,29.27
2018-10-18T13:00:44.762Z,18.37
2018-10-18T13:03:13.927Z,26.12
2018-10-18T13:05:43.139Z,30.40
2018-10-18T13:08:12.731Z,21.23
2018-10-18T13:10:41.590Z,23.95
2018-10-18T13:13:10.750Z,30.82
2018-10-18T13:15:40.066Z,23.98
2018-10-18T13:18:09.325Z,21.12
2018-10-18T13:20:38.452Z,20.32
2018-10-18T13:23:07.630Z,31.50
2018-10-18T13:25:36.747Z,37.15
2018-10-18T13:28:05.934Z,27.90
2018-10-18T13:30:35.319Z,25.90
2018-10-18T13:33:04.476Z,21.07
2018-10-18T13:35:33.827Z,27.93
2018-10-18T13:38:03.239Z,30.15
2018-10-18T13:40:32.443Z,17.70
2018-10-18T13:43:02.151Z,20.02
2018-10-18T13:45:31.424Z,22.73
2018-10-18T13:48:00.594Z,34.75
2018-10-18T13:50:29.871Z,29.40
2018-10-18T13:52:59.335Z,35.45
2018-10-18T13:55:28.525Z,33.38
2018-10-18T13:57:57.762Z,33.42
2018-10-18T14:00:29.902Z,30.30
2018-10-18T14:02:59.022Z,34.67
2018-10-18T14:05:28.525Z,27.85
2018-10-18T14:07:58.446Z,38.20
2018-10-18T14:10:27.665Z,29.20
2018-10-18T14:12:56.832Z,30.40
2018-10-18T14:15:26.854Z,34.73
2018-10-18T14:17:55.988Z,21.27
2018-10-18T14:20:25.142Z,34.23
2018-10-18T14:22:54.634Z,24.00
2018-10-18T14:25:23.742Z,32.53
2018-10-18T14:27:52.875Z,35.20
2018-10-18T14:30:22.307Z,16.62
2018-10-18T14:32:51.343Z,27.02
2018-10-18T14:35:20.759Z,37.65
2018-10-18T14:37:50.021Z,21.62
2018-10-18T14:40:19.174Z,22.58
2018-10-18T14:42:48.268Z,23.92
2018-10-18T14:45:17.744Z,22.10
2018-10-18T14:47:47.044Z,32.65
2018-10-18T14:50:16.191Z,25.30
2018-10-18T14:52:45.629Z,26.77
2018-10-18T14:55:14.888Z,27.77
2018-10-18T14:57:44.026Z,30.15
2018-10-18T15:00:14.364Z,24.60
2018-10-18T15:02:43.810Z,30.15
2018-10-18T15:05:13.521Z,35.15
2018-10-18T15:07:42.968Z,24.32
2018-10-18T15:10:13.319Z,13.50
2018-10-18T15:12:42.690Z,14.80
2018-10-18T15:15:13.293Z,14.33
2018-10-18T15:17:42.738Z,17.50
2018-10-18T15:20:12.621Z,18.92
2018-10-18T15:22:42.620Z,23.57
2018-10-18T15:25:12.697Z,19.00
2018-10-18T15:27:42.320Z,21.62
2018-10-18T15:30:12.007Z,13.98
2018-10-18T15:32:41.108Z,16.02
2018-10-18T15:35:11.257Z,13.70
2018-10-18T15:37:40.754Z,20.97
2018-10-18T15:40:10.183Z,23.87
2018-10-18T15:42:39.272Z,24.70
2018-10-18T15:45:09.299Z,17.70
2018-10-18T15:47:38.658Z,19.95
2018-10-18T15:50:09.130Z,14.75
2018-10-18T15:52:38.576Z,22.30
2018-10-18T15:55:08.021Z,16.35
2018-10-18T15:57:37.151Z,19.70
2018-10-18T16:00:08.278Z,11.50
2018-10-18T16:02:37.390Z,18.52
2018-10-18T16:05:06.898Z,12.60
2018-10-18T16:07:36.223Z,17.42
2018-10-18T16:10:05.979Z,20.97
2018-10-18T16:12:35.280Z,17.00
2018-10-18T16:15:07.213Z,15.30
2018-10-18T16:17:36.425Z,12.65
2018-10-18T16:20:06.598Z,14.75
2018-10-18T16:22:35.963Z,17.35
2018-10-18T16:25:05.198Z,16.87
2018-10-18T16:27:34.294Z,13.38
2018-10-18T16:30:03.702Z,16.07
2018-10-18T16:32:32.968Z,15.78
2018-10-18T16:35:02.143Z,24.37
2018-10-18T16:37:31.619Z,21.93
2018-10-18T16:40:00.894Z,14.60
2018-10-18T16:42:30.035Z,21.10
2018-10-18T16:44:59.440Z,17.07
2018-10-18T16:47:28.652Z,27.07
2018-10-18T16:49:57.732Z,17.30
2018-10-18T16:52:26.671Z,23.83
2018-10-18T16:54:55.891Z,20.77
2018-10-18T16:57:25.303Z,18.00
2018-10-18T16:59:54.659Z,19.95
2018-10-18T17:02:23.786Z,18.10
2018-10-18T17:04:53.097Z,23.98
2018-10-18T17:07:22.615Z,24.77
2018-10-18T17:09:51.834Z,19.35
2018-10-18T17:12:21.092Z,28.67
2018-10-18T17:14:50.400Z,25.72
2018-10-18T17:17:19.607Z,22.35
2018-10-18T17:19:48.697Z,28.52
2018-10-18T17:22:17.900Z,16.65
2018-10-18T17:24:47.075Z,24.43
2018-10-18T17:27:16.370Z,31.73
2018-10-18T17:29:45.466Z,24.27
2018-10-18T17:32:14.664Z,17.02
2018-10-18T17:34:44.126Z,15.88
2018-10-18T17:37:13.247Z,22.77
2018-10-18T17:39:42.036Z,20.52
2018-10-18T17:42:11.451Z,24.50
2018-10-18T17:44:40.554Z,18.62
2018-10-18T17:47:09.701Z,23.77
2018-10-18T17:49:39.315Z,26.68
2018-10-18T17:52:08.482Z,23.05
2018-10-18T17:54:37.583Z,25.92
2018-10-18T17:57:06.964Z,18.60
2018-10-18T17:59:36.123Z,22.10
2018-10-18T18:02:05.404Z,18.15
2018-10-18T18:04:34.976Z,24.52
2018-10-18T18:07:04.005Z,23.35
2018-10-18T18:09:32.984Z,20.30
2018-10-18T18:12:02.360Z,18.73
2018-10-18T18:14:32.057Z,18.45
2018-10-18T18:17:01.247Z,17.85
2018-10-18T18:19:30.835Z,22.55
2018-10-18T18:21:59.962Z,21.85
2018-10-18T18:24:29.551Z,22.95
2018-10-18T18:26:59.019Z,17.62
2018-10-18T18:29:29.050Z,19.60
2018-10-18T18:31:58.359Z,25.30
2018-10-18T18:34:27.359Z,25.32
2018-10-18T18:36:56.383Z,14.35
2018-10-18T18:39:25.234Z,21.70
2018-10-18T18:41:54.750Z,26.60
2018-10-18T18:44:23.740Z,17.45
2018-10-18T18:46:52.572Z,14.13
2018-10-18T18:49:21.695Z,17.10
2018-10-18T18:51:50.598Z,18.48
2018-10-18T18:54:20.038Z,11.50
2018-10-18T18:56:49.358Z,17.92
2018-10-18T18:59:18.443Z,20.60
2018-10-18T19:01:47.572Z,14.58
2018-10-18T19:04:16.963Z,17.67
2018-10-18T19:06:46.112Z,17.60
2018-10-18T19:09:15.367Z,20.92
2018-10-18T19:11:44.463Z,20.05
2018-10-18T19:14:13.317Z,17.05
2018-10-18T19:16:42.202Z,18.25
2018-10-18T19:19:11.266Z,16.35
2018-10-18T19:21:40.314Z,19.98
2018-10-18T19:24:09.146Z,17.57
2018-10-18T19:26:39.023Z,23.70
2018-10-18T19:29:09.468Z,18.75
2018-10-18T19:31:38.466Z,19.82
2018-10-18T19:34:07.762Z,19.82
2018-10-18T19:36:36.707Z,19.67
2018-10-18T19:39:07.251Z,18.57
2018-10-18T19:41:36.583Z,23.15
2018-10-18T19:44:05.808Z,22.22
2018-10-18T19:46:35.073Z,25.48
2018-10-18T19:49:04.347Z,20.52
2018-10-18T19:51:33.235Z,17.37
2018-10-18T19:54:02.090Z,18.05
2018-10-18T19:56:31.478Z,20.65
2018-10-18T19:59:00.848Z,21.35
2018-10-18T20:01:29.808Z,18.35
2018-10-18T20:03:59.094Z,18.37
2018-10-18T20:06:28.095Z,24.72
2018-10-18T20:08:57.002Z,19.05
2018-10-18T20:11:26.490Z,20.08
2018-10-18T20:13:55.786Z,18.07
2018-10-18T20:16:24.713Z,24.05
2018-10-18T20:18:57.204Z,18.02
2018-10-18T20:21:26.355Z,19.15
2018-10-18T20:23:55.196Z,27.00
2018-10-18T20:26:24.326Z,22.50
2018-10-18T20:28:53.338Z,26.55
2018-10-18T20:31:22.882Z,18.12
2018-10-18T20:33:52.302Z,19.20
2018-10-18T20:36:21.174Z,17.37
2018-10-18T20:38:49.959Z,25.48
2018-10-18T20:41:20.053Z,18.87
2018-10-18T20:43:48.827Z,27.37
2018-10-18T20:46:17.865Z,22.15
2018-10-18T20:48:47.207Z,23.67
2018-10-18T20:51:17.290Z,31.00
2018-10-18T20:53:46.180Z,21.87
2018-10-18T20:56:15.513Z,27.42
2018-10-18T20:58:45.484Z,27.13
2018-10-18T21:01:14.487Z,27.77
2018-10-18T21:03:43.208Z,23.60
2018-10-18T21:06:12.112Z,47.93
2018-10-18T21:08:41.049Z,26.97
2018-10-18T21:11:10.068Z,25.68
2018-10-18T21:13:38.945Z,37.45
2018-10-18T21:16:08.260Z,25.90
2018-10-18T21:18:37.479Z,45.70
2018-10-18T21:21:06.911Z,29.20
2018-10-18T21:23:36.105Z,29.50
2018-10-18T21:26:06.086Z,20.00
2018-10-18T21:28:35.059Z,24.25
2018-10-18T21:31:04.343Z,24.47
2018-10-18T21:33:33.511Z,23.18
2018-10-18T21:36:02.560Z,30.62
2018-10-18T21:38:31.327Z,27.87
2018-10-18T21:41:01.212Z,26.07
2018-10-18T21:43:30.466Z,24.32
2018-10-18T21:46:01.180Z,27.70
2018-10-18T21:48:31.765Z,26.00
2018-10-18T21:51:00.783Z,23.47
2018-10-18T21:53:30.420Z,19.82
2018-10-18T21:55:59.575Z,27.07
2018-10-18T21:58:29.743Z,25.88
2018-10-18T22:00:59.042Z,23.50
2018-10-18T22:03:28.275Z,16.45
2018-10-18T22:06:02.091Z,22.45
2018-10-18T22:08:33.303Z,27.00
2018-10-18T22:11:03.198Z,27.40
2018-10-18T22:13:32.638Z,20.97
2018-10-18T22:16:02.264Z,19.87
2018-10-18T22:18:43.335Z,26.65
2018-10-18T22:21:12.358Z,20.20
2018-10-18T22:23:41.485Z,24.45
2018-10-18T22:26:10.395Z,22.65
2018-10-18T22:28:39.391Z,25.32
2018-10-18T22:31:08.688Z,23.62
2018-10-18T22:33:37.784Z,29.60
2018-10-18T22:36:06.779Z,25.17
2018-10-18T22:38:35.704Z,21.82
2018-10-18T22:41:04.948Z,32.33
2018-10-18T22:43:33.991Z,21.70
2018-10-18T22:46:03.284Z,25.60
2018-10-18T22:48:32.368Z,24.07
2018-10-18T22:51:01.371Z,25.82
2018-10-18T22:53:30.187Z,31.17
2018-10-18T22:55:59.479Z,30.90
2018-10-18T22:58:28.584Z,31.40
2018-10-18T23:00:57.664Z,22.80
2018-10-18T23:03:38.549Z,35.75
2018-10-18T23:06:07.818Z,25.17
2018-10-18T23:08:36.818Z,26.50
2018-10-18T23:11:06.070Z,23.45
2018-10-18T23:13:34.957Z,25.00
2018-10-18T23:16:04.388Z,23.47
2018-10-18T23:18:33.015Z,25.17
2018-10-18T23:21:02.013Z,24.45
2018-10-18T23:23:31.203Z,26.15
2018-10-18T23:26:00.195Z,25.85
2018-10-18T23:28:29.390Z,24.57
2018-10-18T23:30:58.466Z,26.35
2018-10-18T23:33:27.371Z,26.77
2018-10-18T23:35:56.476Z,30.37
2018-10-18T23:38:25.414Z,27.07
2018-10-18T23:40:54.436Z,28.17
2018-10-18T23:43:23.439Z,17.73
2018-10-18T23:45:54.388Z,28.95
2018-10-18T23:48:23.920Z,26.23
2018-10-18T23:50:53.651Z,26.12
2018-10-18T23:53:23.064Z,32.23
2018-10-18T23:55:52.230Z,28.07
2018-10-18T23:58:21.142Z,25.52
